createdAt,value
2018-11-13T00:00:18.336Z,13.17
2018-11-13T00:02:47.095Z,13.40
2018-11-13T00:05:17.811Z,14.33
2018-11-13T00:07:46.523Z,16.90
2018-11-13T00:10:15.154Z,17.37
2018-11-13T00:12:43.811Z,16.50
2018-11-13T00:15:13.059Z,18.17
2018-11-13T00:17:41.700Z,17.47
2018-11-13T00:20:13.029Z,15.33
2018-11-13T00:22:42.353Z,15.60
2018-11-13T00:25:12.620Z,14.53
2018-11-13T00:27:42.068Z,14.63
2018-11-13T00:30:13.489Z,14.90
2018-11-13T00:32:42.698Z,15.30
2018-11-13T00:35:12.695Z,16.53
2018-11-13T00:37:41.417Z,15.30
2018-11-13T00:40:11.091Z,15.90
2018-11-13T00:42:40.160Z,16.27
2018-11-13T00:45:09.054Z,15.67
2018-11-13T00:47:37.915Z,15.90
2018-11-13T00:50:10.492Z,16.30
2018-11-13T00:52:39.412Z,16.83
2018-11-13T00:55:08.637Z,16.27
2018-11-13T00:57:37.263Z,14.80
2018-11-13T01:00:08.720Z,15.90
2018-11-13T01:02:37.641Z,16.63
2018-11-13T01:05:08.059Z,18.57
2018-11-13T01:07:36.681Z,17.27
2018-11-13T01:10:05.829Z,17.73
2018-11-13T01:12:34.391Z,17.37
2018-11-13T01:15:03.069Z,16.67
2018-11-13T01:17:32.263Z,17.43
2018-11-13T01:20:00.738Z,17.00
2018-11-13T01:22:29.438Z,17.87
2018-11-13T01:24:57.993Z,18.20
2018-11-13T01:27:26.825Z,17.57
2018-11-13T01:29:55.594Z,16.67
2018-11-13T01:32:25.991Z,15.83
2018-11-13T01:34:55.091Z,14.43
2018-11-13T01:37:24.746Z,15.40
2018-11-13T01:39:53.891Z,13.40
2018-11-13T01:42:22.657Z,14.87
2018-11-13T01:44:51.441Z,15.47
2018-11-13T01:47:20.297Z,15.73
2018-11-13T01:49:48.961Z,13.83
2018-11-13T01:52:17.752Z,12.70
2018-11-13T01:54:46.386Z,12.43
2018-11-13T01:57:15.545Z,11.60
2018-11-13T01:59:43.717Z,13.33
2018-11-13T02:02:12.475Z,13.70
2018-11-13T02:04:41.316Z,12.50
2018-11-13T02:07:09.888Z,13.40
2018-11-13T02:09:38.447Z,12.67
2018-11-13T02:12:07.226Z,12.70
2018-11-13T02:14:36.241Z,12.63
2018-11-13T02:17:05.187Z,12.80
2018-11-13T02:19:33.787Z,12.73
2018-11-13T02:22:02.612Z,12.57
2018-11-13T02:24:31.151Z,13.13
2018-11-13T02:26:59.717Z,13.47
2018-11-13T02:29:28.291Z,12.50
2018-11-13T02:31:57.001Z,13.73
2018-11-13T02:34:25.726Z,11.87
2018-11-13T02:36:54.357Z,11.53
2018-11-13T02:39:22.929Z,10.30
2018-11-13T02:41:52.194Z,10.10
2018-11-13T02:44:20.908Z,9.50
2018-11-13T02:46:50.063Z,8.33
2018-11-13T02:49:18.799Z,8.13
2018-11-13T02:51:47.932Z,8.10
2018-11-13T02:54:16.982Z,7.47
2018-11-13T02:56:45.520Z,9.40
2018-11-13T02:59:14.113Z,11.90
2018-11-13T03:01:42.917Z,10.27
2018-11-13T03:04:11.532Z,10.50
2018-11-13T03:06:40.331Z,10.07
2018-11-13T03:09:09.423Z,10.73
2018-11-13T03:11:38.368Z,9.77
2018-11-13T03:14:07.057Z,10.00
2018-11-13T03:16:35.671Z,10.00
2018-11-13T03:19:04.561Z,9.27
2018-11-13T03:21:33.416Z,10.17
2018-11-13T03:24:02.206Z,9.93
2018-11-13T03:26:30.913Z,12.77
2018-11-13T03:28:59.553Z,11.00
2018-11-13T03:31:28.658Z,10.90
2018-11-13T03:33:57.294Z,10.63
2018-11-13T03:36:25.878Z,9.10
2018-11-13T03:38:54.446Z,8.40
2018-11-13T03:41:23.278Z,8.37
2018-11-13T03:43:52.068Z,7.90
2018-11-13T03:46:20.792Z,6.27
2018-11-13T03:48:49.478Z,5.63
2018-11-13T03:51:18.282Z,5.67
2018-11-13T03:53:46.846Z,5.10
2018-11-13T03:56:15.609Z,4.20
2018-11-13T03:58:44.361Z,4.50
2018-11-13T04:01:13.458Z,3.90
2018-11-13T04:03:42.313Z,3.80
2018-11-13T04:06:10.988Z,4.00
2018-11-13T04:08:39.819Z,4.00
2018-11-13T04:11:08.749Z,4.13
2018-11-13T04:13:37.518Z,3.80
2018-11-13T04:16:06.387Z,4.10
2018-11-13T04:18:35.191Z,3.80
2018-11-13T04:21:03.997Z,4.30
2018-11-13T04:23:32.744Z,4.33
2018-11-13T04:26:01.355Z,4.60
2018-11-13T04:28:30.211Z,4.27
2018-11-13T04:30:58.989Z,4.73
2018-11-13T04:33:27.884Z,4.00
2018-11-13T04:35:56.463Z,4.40
2018-11-13T04:38:25.048Z,4.33
2018-11-13T04:40:53.751Z,3.60
2018-11-13T04:43:22.597Z,3.90
2018-11-13T04:45:51.251Z,3.40
2018-11-13T04:48:19.910Z,3.20
2018-11-13T04:50:48.586Z,3.30
2018-11-13T04:53:17.367Z,3.10
2018-11-13T04:55:46.249Z,2.70
2018-11-13T04:58:15.058Z,2.90
2018-11-13T05:00:43.957Z,2.60
2018-11-13T05:03:12.608Z,3.57
2018-11-13T05:05:41.172Z,2.87
2018-11-13T05:08:09.798Z,3.47
2018-11-13T05:10:38.391Z,2.83
2018-11-13T05:13:06.938Z,3.20
2018-11-13T05:15:35.496Z,2.93
2018-11-13T05:18:04.858Z,3.00
2018-11-13T05:20:33.687Z,3.30
2018-11-13T05:23:02.844Z,3.10
2018-11-13T05:25:31.738Z,2.80
2018-11-13T05:28:00.672Z,3.10
2018-11-13T05:30:29.460Z,2.90
2018-11-13T05:32:58.197Z,3.10
2018-11-13T05:35:26.968Z,2.73
2018-11-13T05:37:55.783Z,2.67
2018-11-13T05:40:25.354Z,2.70
2018-11-13T05:42:54.246Z,2.97
2018-11-13T05:45:24.231Z,3.00
2018-11-13T05:47:52.999Z,2.53
2018-11-13T05:50:21.817Z,2.60
2018-11-13T05:52:52.179Z,2.70
2018-11-13T05:55:20.777Z,2.63
2018-11-13T05:57:49.407Z,3.23
2018-11-13T06:00:25.687Z,2.70
2018-11-13T06:02:54.738Z,2.60
2018-11-13T06:05:23.561Z,2.60
2018-11-13T06:07:52.260Z,2.40
2018-11-13T06:10:21.202Z,2.90
2018-11-13T06:12:50.098Z,2.70
2018-11-13T06:15:18.872Z,2.67
2018-11-13T06:17:47.783Z,2.60
2018-11-13T06:20:16.867Z,2.87
2018-11-13T06:22:45.670Z,2.83
2018-11-13T06:25:15.759Z,3.30
2018-11-13T06:27:45.528Z,3.33
2018-11-13T06:30:17.003Z,3.00
2018-11-13T06:32:46.409Z,3.00
2018-11-13T06:35:19.982Z,2.67
2018-11-13T06:37:48.538Z,2.50
2018-11-13T06:40:17.362Z,3.23
2018-11-13T06:42:46.223Z,3.43
2018-11-13T06:45:20.742Z,3.43
2018-11-13T06:47:49.900Z,3.47
2018-11-13T06:50:18.581Z,3.23
2018-11-13T06:52:48.443Z,3.83
2018-11-13T06:55:25.649Z,3.30
2018-11-13T06:57:54.337Z,3.33
2018-11-13T07:00:23.472Z,2.70
2018-11-13T07:02:52.236Z,3.23
2018-11-13T07:05:20.978Z,2.90
2018-11-13T07:07:50.016Z,3.00
2018-11-13T07:10:20.825Z,3.10
2018-11-13T07:12:50.555Z,3.40
2018-11-13T07:15:22.276Z,3.63
2018-11-13T07:17:54.332Z,3.00
2018-11-13T07:20:24.157Z,2.73
2018-11-13T07:22:53.252Z,2.77
2018-11-13T07:25:22.339Z,2.70
2018-11-13T07:27:51.220Z,2.63
2018-11-13T07:30:20.666Z,3.10
2018-11-13T07:32:49.542Z,2.90
2018-11-13T07:35:19.281Z,3.27
2018-11-13T07:37:50.966Z,3.00
2018-11-13T07:40:19.665Z,3.30
2018-11-13T07:42:48.448Z,3.47
2018-11-13T07:45:17.262Z,3.00
2018-11-13T07:47:46.872Z,3.30
2018-11-13T07:50:16.137Z,3.20
2018-11-13T07:52:44.847Z,3.10
2018-11-13T07:55:14.458Z,3.07
2018-11-13T07:57:43.272Z,3.33
2018-11-13T08:00:15.672Z,3.63
2018-11-13T08:02:45.838Z,3.47
2018-11-13T08:05:14.644Z,2.97
2018-11-13T08:07:43.938Z,2.93
2018-11-13T08:10:13.324Z,3.40
2018-11-13T08:12:42.108Z,3.13
2018-11-13T08:15:12.731Z,3.13
2018-11-13T08:17:41.802Z,3.33
2018-11-13T08:20:12.301Z,3.20
2018-11-13T08:22:41.556Z,2.47
2018-11-13T08:25:10.789Z,2.53
2018-11-13T08:27:40.646Z,2.90
2018-11-13T08:30:13.083Z,2.70
2018-11-13T08:32:43.320Z,2.40
2018-11-13T08:35:12.184Z,2.37
2018-11-13T08:37:41.152Z,2.17
2018-11-13T08:40:12.341Z,2.07
2018-11-13T08:42:41.834Z,2.47
2018-11-13T08:45:11.553Z,2.20
2018-11-13T08:47:40.634Z,3.03
2018-11-13T08:50:10.111Z,2.50
2018-11-13T08:52:39.294Z,2.17
2018-11-13T08:55:09.047Z,2.27
2018-11-13T08:57:37.894Z,1.83
2018-11-13T09:00:08.519Z,2.30
2018-11-13T09:02:37.686Z,1.70
2018-11-13T09:05:07.049Z,1.70
2018-11-13T09:07:35.744Z,1.97
2018-11-13T09:10:05.257Z,1.50
2018-11-13T09:12:33.976Z,1.87
2018-11-13T09:15:02.873Z,1.67
2018-11-13T09:17:31.608Z,1.60
2018-11-13T09:20:00.460Z,1.80
2018-11-13T09:22:29.321Z,1.70
2018-11-13T09:24:58.243Z,1.60
2018-11-13T09:27:27.198Z,1.40
2018-11-13T09:29:56.261Z,1.50
2018-11-13T09:32:25.392Z,1.33
2018-11-13T09:34:54.181Z,1.80
2018-11-13T09:37:22.948Z,1.43
2018-11-13T09:39:51.925Z,1.40
2018-11-13T09:42:20.804Z,1.50
2018-11-13T09:44:49.697Z,1.30
2018-11-13T09:47:18.296Z,1.60
2018-11-13T09:49:47.113Z,1.73
2018-11-13T09:52:15.842Z,2.33
2018-11-13T09:54:44.474Z,1.57
2018-11-13T09:57:13.449Z,1.57
2018-11-13T09:59:42.325Z,1.70
2018-11-13T10:02:11.673Z,1.83
2018-11-13T10:04:40.368Z,1.63
2018-11-13T10:07:08.404Z,1.40
2018-11-13T10:09:37.552Z,1.40
2018-11-13T10:12:06.441Z,1.37
2018-11-13T10:14:35.213Z,1.50
2018-11-13T10:17:03.953Z,2.00
2018-11-13T10:19:32.612Z,1.53
2018-11-13T10:22:01.223Z,1.57
2018-11-13T10:24:30.051Z,2.00
2018-11-13T10:26:59.250Z,1.60
2018-11-13T10:29:28.148Z,1.60
2018-11-13T10:31:56.842Z,1.67
2018-11-13T10:34:25.652Z,1.70
2018-11-13T10:36:54.269Z,1.17
2018-11-13T10:39:23.063Z,1.70
2018-11-13T10:41:51.984Z,1.90
2018-11-13T10:44:20.924Z,1.30
2018-11-13T10:46:49.771Z,1.40
2018-11-13T10:49:18.639Z,1.40
2018-11-13T10:51:47.273Z,1.30
2018-11-13T10:54:16.108Z,1.60
2018-11-13T10:56:44.958Z,1.63
2018-11-13T10:59:14.114Z,1.70
2018-11-13T11:01:48.263Z,1.20
2018-11-13T11:04:31.047Z,1.90
2018-11-13T11:07:00.121Z,1.20
2018-11-13T11:09:28.714Z,1.37
2018-11-13T11:11:57.366Z,1.30
2018-11-13T11:14:26.178Z,1.30
2018-11-13T11:16:55.042Z,1.43
2018-11-13T11:19:24.007Z,1.03
2018-11-13T11:21:52.928Z,1.00
2018-11-13T11:24:21.806Z,0.90
2018-11-13T11:26:50.607Z,1.10
2018-11-13T11:29:19.598Z,1.20
2018-11-13T11:31:48.212Z,1.37
2018-11-13T11:34:16.833Z,1.00
2018-11-13T11:36:46.204Z,1.30
2018-11-13T11:39:15.238Z,1.40
2018-11-13T11:41:44.041Z,1.17
2018-11-13T11:44:13.132Z,1.60
2018-11-13T11:46:42.158Z,1.40
2018-11-13T11:49:10.840Z,1.30
2018-11-13T11:51:39.671Z,1.40
2018-11-13T11:54:08.465Z,1.20
2018-11-13T11:56:37.128Z,1.37
2018-11-13T11:59:06.059Z,1.07
2018-11-13T12:01:34.823Z,1.80
2018-11-13T12:04:03.529Z,1.00
2018-11-13T12:06:32.876Z,1.00
2018-11-13T12:09:01.922Z,1.10
2018-11-13T12:11:30.753Z,1.03
2018-11-13T12:13:59.706Z,1.40
2018-11-13T12:16:28.560Z,1.10
2018-11-13T12:18:57.335Z,1.33
2018-11-13T12:21:25.972Z,1.67
2018-11-13T12:23:54.526Z,1.00
2018-11-13T12:26:23.426Z,1.37
2018-11-13T12:28:52.379Z,0.97
2018-11-13T12:31:20.939Z,1.20
2018-11-13T12:33:49.901Z,1.17
2018-11-13T12:36:18.691Z,1.03
2018-11-13T12:38:47.383Z,1.20
2018-11-13T12:41:16.171Z,1.30
2018-11-13T12:43:45.378Z,0.97
2018-11-13T12:46:14.034Z,1.03
2018-11-13T12:48:42.860Z,1.17
2018-11-13T12:51:16.062Z,1.23
2018-11-13T12:53:44.708Z,1.20
2018-11-13T12:56:13.655Z,1.40
2018-11-13T12:58:42.327Z,1.43
2018-11-13T13:01:11.391Z,1.40
2018-11-13T13:03:40.148Z,1.40
2018-11-13T13:06:09.006Z,1.33
2018-11-13T13:08:37.728Z,1.07
2018-11-13T13:11:07.170Z,1.60
2018-11-13T13:13:35.795Z,1.40
2018-11-13T13:16:04.478Z,2.20
2018-11-13T13:18:33.557Z,1.40
2018-11-13T13:21:02.540Z,2.20
2018-11-13T13:23:31.289Z,2.13
2018-11-13T13:25:59.992Z,2.03
2018-11-13T13:28:28.699Z,1.80
2018-11-13T13:30:57.312Z,2.60
2018-11-13T13:33:26.237Z,2.27
2018-11-13T13:36:02.978Z,2.20
2018-11-13T13:38:33.737Z,2.60
2018-11-13T13:41:03.589Z,2.70
2018-11-13T13:43:32.944Z,3.07
2018-11-13T13:46:01.892Z,3.10
2018-11-13T13:48:30.793Z,2.10
2018-11-13T13:50:59.497Z,5.23
2018-11-13T13:53:28.801Z,3.10
2018-11-13T13:55:57.656Z,2.40
2018-11-13T13:58:26.726Z,1.80
2018-11-13T14:00:56.451Z,3.30
2018-11-13T14:03:25.206Z,3.47
2018-11-13T14:05:54.051Z,2.60
2018-11-13T14:08:22.963Z,2.83
2018-11-13T14:10:51.680Z,2.60
2018-11-13T14:13:20.420Z,2.60
2018-11-13T14:15:49.191Z,2.37
2018-11-13T14:18:17.901Z,2.30
2018-11-13T14:20:46.979Z,1.80
2018-11-13T14:23:16.195Z,1.70
2018-11-13T14:25:45.221Z,2.07
2018-11-13T14:28:14.027Z,2.10
2018-11-13T14:30:43.002Z,2.43
2018-11-13T14:33:12.900Z,1.63
2018-11-13T14:35:41.838Z,2.20
2018-11-13T14:38:10.346Z,2.33
2018-11-13T14:40:41.377Z,1.90
2018-11-13T14:43:10.481Z,1.40
2018-11-13T14:45:39.147Z,1.87
2018-11-13T14:48:08.698Z,1.70
2018-11-13T14:50:37.706Z,2.07
2018-11-13T14:53:06.960Z,1.90
2018-11-13T14:55:37.480Z,1.97
2018-11-13T14:58:07.433Z,1.80
2018-11-13T15:00:37.154Z,1.50
2018-11-13T15:03:07.682Z,1.90
2018-11-13T15:05:36.897Z,1.83
2018-11-13T15:08:07.046Z,1.93
2018-11-13T15:10:50.039Z,2.20
2018-11-13T15:13:19.447Z,2.40
2018-11-13T15:15:48.515Z,1.80
2018-11-13T15:18:17.535Z,1.77
2018-11-13T15:20:47.041Z,2.03
2018-11-13T15:23:16.114Z,1.90
2018-11-13T15:25:45.015Z,2.00
2018-11-13T15:28:14.193Z,2.27
2018-11-13T15:30:45.159Z,2.00
2018-11-13T15:33:18.252Z,2.23
2018-11-13T15:35:47.160Z,2.10
2018-11-13T15:38:15.977Z,2.67
2018-11-13T15:40:44.795Z,2.37
2018-11-13T15:43:13.635Z,1.83
2018-11-13T15:45:42.333Z,2.13
2018-11-13T15:48:12.536Z,2.00
2018-11-13T15:50:41.596Z,2.00
2018-11-13T15:53:10.622Z,1.93
2018-11-13T15:55:39.577Z,1.90
2018-11-13T15:58:09.003Z,2.47
2018-11-13T16:00:39.088Z,1.77
2018-11-13T16:03:16.760Z,1.60
2018-11-13T16:05:46.976Z,2.50
2018-11-13T16:08:15.707Z,2.43
2018-11-13T16:10:44.619Z,2.90
2018-11-13T16:13:13.289Z,2.30
2018-11-13T16:15:42.695Z,2.23
2018-11-13T16:18:14.165Z,2.50
2018-11-13T16:20:43.027Z,2.37
2018-11-13T16:23:11.621Z,2.83
2018-11-13T16:25:40.601Z,4.80
2018-11-13T16:28:09.453Z,4.37
2018-11-13T16:30:39.336Z,3.70
2018-11-13T16:33:08.195Z,3.37
2018-11-13T16:35:37.295Z,3.10
2018-11-13T16:38:07.698Z,3.60
2018-11-13T16:40:36.493Z,3.27
2018-11-13T16:43:05.465Z,7.00
2018-11-13T16:45:34.999Z,5.70
2018-11-13T16:48:04.800Z,5.00
2018-11-13T16:50:34.953Z,3.83
2018-11-13T16:53:03.714Z,3.73
2018-11-13T16:55:37.860Z,3.53
2018-11-13T16:58:08.391Z,3.83
2018-11-13T17:00:37.787Z,3.10
2018-11-13T17:03:06.648Z,3.63
2018-11-13T17:05:35.351Z,3.53
2018-11-13T17:08:04.074Z,3.85
2018-11-13T17:10:33.077Z,4.37
2018-11-13T17:13:02.571Z,4.27
2018-11-13T17:15:32.096Z,3.97
2018-11-13T17:18:02.116Z,3.23
2018-11-13T17:20:30.921Z,3.33
2018-11-13T17:22:59.681Z,2.80
2018-11-13T17:25:29.872Z,2.80
2018-11-13T17:27:58.525Z,2.90
2018-11-13T17:30:29.050Z,3.50
2018-11-13T17:32:58.846Z,3.83
2018-11-13T17:35:28.453Z,2.90
2018-11-13T17:37:57.902Z,3.50
2018-11-13T17:40:28.642Z,3.10
2018-11-13T17:42:58.678Z,3.50
2018-11-13T17:45:28.886Z,3.20
2018-11-13T17:47:58.637Z,4.00
2018-11-13T17:50:30.047Z,3.63
2018-11-13T17:52:58.730Z,3.20
2018-11-13T17:55:27.950Z,3.50
2018-11-13T17:57:58.620Z,3.70
2018-11-13T18:00:30.507Z,3.20
2018-11-13T18:02:59.652Z,3.50
2018-11-13T18:05:29.009Z,3.40
2018-11-13T18:07:58.783Z,2.73
2018-11-13T18:10:28.537Z,3.33
2018-11-13T18:12:57.483Z,3.20
2018-11-13T18:15:27.323Z,2.70
2018-11-13T18:17:56.227Z,2.60
2018-11-13T18:20:27.604Z,3.03
2018-11-13T18:22:56.782Z,3.00
2018-11-13T18:25:26.000Z,3.13
2018-11-13T18:27:56.528Z,3.80
2018-11-13T18:30:27.758Z,3.40
2018-11-13T18:32:57.914Z,3.73
2018-11-13T18:35:31.159Z,4.10
2018-11-13T18:38:01.260Z,3.97
2018-11-13T18:40:30.543Z,4.30
2018-11-13T18:43:00.474Z,5.37
2018-11-13T18:45:31.117Z,4.30
2018-11-13T18:48:00.611Z,3.40
2018-11-13T18:50:31.036Z,3.00
2018-11-13T18:53:00.202Z,4.10
2018-11-13T18:55:29.300Z,3.80
2018-11-13T18:57:58.832Z,3.37
2018-11-13T19:00:32.131Z,4.13
2018-11-13T19:03:02.369Z,3.43
2018-11-13T19:05:31.642Z,3.50
2018-11-13T19:08:00.972Z,4.07
2018-11-13T19:10:37.173Z,3.47
2018-11-13T19:13:09.002Z,3.33
2018-11-13T19:15:39.591Z,4.13
2018-11-13T19:18:09.172Z,3.60
2018-11-13T19:20:38.003Z,3.97
2018-11-13T19:23:06.935Z,3.43
2018-11-13T19:25:36.445Z,4.47
2018-11-13T19:28:05.602Z,3.90
2018-11-13T19:30:34.605Z,4.27
2018-11-13T19:33:03.593Z,3.40
2018-11-13T19:35:32.481Z,3.53
2018-11-13T19:38:01.255Z,4.27
2018-11-13T19:40:32.586Z,3.97
2018-11-13T19:43:02.295Z,3.47
2018-11-13T19:45:30.974Z,4.33
2018-11-13T19:48:00.009Z,3.70
2018-11-13T19:50:30.133Z,4.10
2018-11-13T19:52:59.143Z,4.30
2018-11-13T19:55:28.342Z,4.13
2018-11-13T19:57:57.474Z,4.10
2018-11-13T20:00:34.544Z,4.10
2018-11-13T20:03:05.060Z,5.10
2018-11-13T20:05:34.299Z,6.40
2018-11-13T20:08:03.251Z,5.63
2018-11-13T20:10:33.563Z,5.70
2018-11-13T20:13:03.784Z,7.87
2018-11-13T20:15:33.395Z,8.30
2018-11-13T20:18:02.236Z,6.27
2018-11-13T20:20:32.201Z,6.00
2018-11-13T20:23:02.326Z,6.30
2018-11-13T20:25:32.254Z,4.83
2018-11-13T20:28:01.119Z,5.20
2018-11-13T20:30:31.409Z,4.50
2018-11-13T20:33:00.129Z,4.27
2018-11-13T20:35:29.077Z,5.13
2018-11-13T20:37:58.257Z,5.13
2018-11-13T20:40:30.571Z,4.57
2018-11-13T20:43:00.915Z,4.93
2018-11-13T20:45:30.035Z,5.00
2018-11-13T20:47:58.873Z,6.07
2018-11-13T20:50:31.306Z,5.70
2018-11-13T20:53:00.156Z,5.70
2018-11-13T20:55:29.155Z,7.90
2018-11-13T20:57:58.416Z,7.70
2018-11-13T21:00:33.491Z,7.80
2018-11-13T21:03:02.802Z,7.13
2018-11-13T21:05:31.524Z,7.23
2018-11-13T21:08:00.532Z,7.17
2018-11-13T21:10:33.642Z,5.87
2018-11-13T21:13:03.256Z,6.47
2018-11-13T21:15:32.224Z,6.83
2018-11-13T21:18:01.208Z,7.20
2018-11-13T21:20:30.202Z,6.60
2018-11-13T21:22:59.121Z,6.30
2018-11-13T21:25:28.331Z,6.83
2018-11-13T21:27:58.849Z,7.20
2018-11-13T21:30:27.643Z,6.87
2018-11-13T21:32:56.529Z,7.17
2018-11-13T21:35:25.482Z,7.73
2018-11-13T21:37:55.724Z,8.07
2018-11-13T21:40:25.854Z,8.00
2018-11-13T21:42:55.652Z,7.17
2018-11-13T21:45:25.320Z,8.63
2018-11-13T21:47:54.154Z,10.20
2018-11-13T21:50:24.367Z,8.00
2018-11-13T21:52:53.246Z,8.40
2018-11-13T21:55:23.779Z,9.37
2018-11-13T21:57:52.080Z,8.20
2018-11-13T22:00:29.374Z,8.10
2018-11-13T22:02:59.617Z,9.80
2018-11-13T22:05:29.524Z,9.83
2018-11-13T22:07:59.047Z,11.03
2018-11-13T22:10:27.860Z,9.70
2018-11-13T22:12:56.461Z,10.93
2018-11-13T22:15:26.470Z,9.63
2018-11-13T22:17:55.135Z,9.53
2018-11-13T22:20:24.573Z,9.43
2018-11-13T22:22:54.632Z,9.63
2018-11-13T22:25:24.546Z,10.27
2018-11-13T22:27:54.567Z,10.97
2018-11-13T22:30:24.916Z,9.93
2018-11-13T22:32:53.705Z,8.80
2018-11-13T22:35:22.877Z,7.00
2018-11-13T22:37:51.603Z,7.80
2018-11-13T22:40:22.209Z,7.27
2018-11-13T22:42:51.303Z,7.67
2018-11-13T22:45:21.516Z,7.70
2018-11-13T22:47:50.626Z,6.47
2018-11-13T22:50:21.647Z,5.37
2018-11-13T22:52:50.682Z,5.07
2018-11-13T22:55:20.116Z,4.93
2018-11-13T22:57:50.187Z,4.83
2018-11-13T23:00:24.392Z,5.43
2018-11-13T23:02:54.658Z,4.97
2018-11-13T23:05:23.444Z,4.67
2018-11-13T23:07:52.210Z,5.60
2018-11-13T23:10:20.782Z,4.20
2018-11-13T23:12:49.603Z,4.47
2018-11-13T23:15:19.951Z,4.43
2018-11-13T23:17:48.803Z,4.23
2018-11-13T23:20:19.264Z,4.40
2018-11-13T23:22:48.079Z,4.27
2018-11-13T23:25:18.160Z,4.20
2018-11-13T23:27:47.966Z,4.80
2018-11-13T23:30:24.926Z,3.93
2018-11-13T23:32:54.287Z,4.40
2018-11-13T23:35:23.073Z,4.43
2018-11-13T23:37:53.677Z,3.90
2018-11-13T23:40:23.502Z,3.90
2018-11-13T23:42:52.549Z,4.13
2018-11-13T23:45:22.178Z,4.03
2018-11-13T23:47:51.329Z,3.77
2018-11-13T23:50:20.307Z,3.70
2018-11-13T23:52:50.144Z,4.00
2018-11-13T23:55:19.239Z,3.33
2018-11-13T23:57:48.617Z,3.80
